Etusivu
METAR-TAF:

METAR-TAF

Lentoasemat :

Savonlinna, Suomi

Savonlinnan lentoasema

Leveyspiiri: 61-57N, Pituuspiiri: 028-57E, korkeus merenpinnasta: 95 m

Tämänhetkinen sää

Tämä raportti tehtiin 17 minuuttia sitten, kello 18.20 UTC
Tuuli 6 kn idästä/koillisesta
Lämpötila 9°C
Kosteus 93%
Ilmanpaine 1032 hPa
Näkyvyys 10 km tai enemmän
Hajanaisia pilviä 800 ft:n korkeudessa
Hajonneita pilviä 11300 ft:n korkeudessa

METAR: EFSA 221820Z AUTO 07006KT 9999 SCT008 BKN113 09/08 Q1032

Aika: 21:37 (18:37 UTC)

Sääennuste

Tämä raportti tehtiin 1 tunti ja 5 minuuttia sitten, kello 17.32 UTC
Ennuste voimassa 22. päivästä klo 18 UTC - 22. päivään klo 21 UTC
Tuuli 6 kn idästä
Näkyvyys 10 km tai enemmän
Pilvistä 800 ft:n korkeudessa

TAF: EFSA 221732Z 2218/2221 09006KT 9999 OVC008

Säähavainnot ja -ennusteet yli 4000 lentoasemalta (METAR- ja TAF-raportit).

Käytössä olevat sääasemat on merkitty karttaan keltaisilla ja punaisilla pisteillä.

Aseta hiiri pisteen päälle nähdäksesi sääaseman nimen.

Klikkaa sitten nähdäksesi säähavainnot ja -ennusteet.

Kartan vaihtaminen: klikkaa mustalla rastilla varustettuja vihreitä pisteitä, niin voit zoomata sisään; viivalla varustettua vihreää pistettä, niin voit zoomata ulos tai vihreitä nuolia, niin pääset viereisille kartoille.


METAR-TAF: